ANA202 RJBB-RJTT
Flight info
| Callsign | ANA202 |
|---|---|
| Flight time | 0h 49m |
| Altitude | 33000 |
| Route | SOVRI UPRAL YAGYU SHTLE Y71 XAC |
| Aircraft | B77W/H-SDE1E2E3FGHIJ2J3J4J5M1RWXY/LB1D1 |
Departure
| Time | 2026-04-30 07:48 |
|---|---|
| Airport | Kansai International Airport (RJBB) |
Arrival
| Time | 2026-04-30 08:38 |
|---|---|
| Airport | Tokyo Haneda International Airport (RJTT) |
| Time | Latitude | Longitude | Altitude | Speed | Heading |
|---|---|---|---|---|---|
| 2026-04-30 07:17 | 34.43336 | 135.24506 | 19 ft | 0 kts | 322° |
| 2026-04-30 07:24 | 34.43335 | 135.24506 | 19 ft | 0 kts | 322° |
| 2026-04-30 07:27 | 34.43329 | 135.24512 | 19 ft | 2 kts | 322° |
| 2026-04-30 07:28 | 34.43318 | 135.24522 | 19 ft | 0 kts | 323° |
| 2026-04-30 07:28 | 34.43310 | 135.24528 | 18 ft | 1 kts | 317° |
| 2026-04-30 07:28 | 34.43303 | 135.24541 | 18 ft | 1 kts | 299° |
| 2026-04-30 07:28 | 34.43298 | 135.24554 | 17 ft | 1 kts | 282° |
| 2026-04-30 07:29 | 34.43296 | 135.24570 | 16 ft | 1 kts | 264° |
| 2026-04-30 07:29 | 34.43299 | 135.24583 | 14 ft | 1 kts | 249° |
| 2026-04-30 07:29 | 34.43305 | 135.24599 | 12 ft | 1 kts | 234° |
| 2026-04-30 07:29 | 34.43309 | 135.24605 | 12 ft | 1 kts | 229° |
| 2026-04-30 07:31 | 34.43294 | 135.24582 | 14 ft | 5 kts | 233° |
| 2026-04-30 07:32 | 34.43265 | 135.24539 | 19 ft | 6 kts | 213° |
| 2026-04-30 07:32 | 34.43251 | 135.24533 | 21 ft | 3 kts | 211° |
| 2026-04-30 07:33 | 34.43239 | 135.24518 | 23 ft | 1 kts | 232° |
| 2026-04-30 07:35 | 34.43224 | 135.24493 | 26 ft | 12 kts | 234° |
| 2026-04-30 07:35 | 34.43121 | 135.24324 | 27 ft | 34 kts | 233° |
| 2026-04-30 07:35 | 34.42963 | 135.24091 | 8 ft | 35 kts | 231° |
| 2026-04-30 07:36 | 34.42813 | 135.23865 | 5 ft | 21 kts | 231° |
| 2026-04-30 07:36 | 34.42732 | 135.23820 | 2 ft | 12 kts | 180° |
| 2026-04-30 07:36 | 34.42655 | 135.23781 | 2 ft | 12 kts | 230° |
| 2026-04-30 07:36 | 34.42600 | 135.23697 | 0 ft | 14 kts | 231° |
| 2026-04-30 07:37 | 34.42564 | 135.23628 | -3 ft | 6 kts | 268° |
| 2026-04-30 07:37 | 34.42591 | 135.23579 | -3 ft | 7 kts | 319° |
| 2026-04-30 07:37 | 34.42629 | 135.23541 | 0 ft | 5 kts | 320° |
| 2026-04-30 07:37 | 34.42641 | 135.23529 | 2 ft | 0 kts | 320° |
| 2026-04-30 07:38 | 34.42641 | 135.23528 | 2 ft | 0 kts | 320° |
| 2026-04-30 07:38 | 34.42668 | 135.23502 | 8 ft | 11 kts | 320° |
| 2026-04-30 07:39 | 34.42763 | 135.23406 | 25 ft | 24 kts | 320° |
| 2026-04-30 07:39 | 34.42954 | 135.23225 | 27 ft | 45 kts | 324° |
| 2026-04-30 07:39 | 34.43259 | 135.22975 | 15 ft | 41 kts | 314° |
| 2026-04-30 07:39 | 34.43392 | 135.22810 | 15 ft | 11 kts | 315° |
| 2026-04-30 07:40 | 34.43425 | 135.22775 | 15 ft | 6 kts | 320° |
| 2026-04-30 07:40 | 34.43459 | 135.22740 | 15 ft | 6 kts | 320° |
| 2026-04-30 07:40 | 34.43496 | 135.22702 | 15 ft | 9 kts | 317° |
| 2026-04-30 07:40 | 34.43571 | 135.22621 | 15 ft | 19 kts | 320° |
| 2026-04-30 07:41 | 34.43700 | 135.22493 | 15 ft | 28 kts | 321° |
| 2026-04-30 07:41 | 34.43777 | 135.22350 | 15 ft | 15 kts | 254° |
| 2026-04-30 07:41 | 34.43691 | 135.22215 | 15 ft | 24 kts | 229° |
| 2026-04-30 07:41 | 34.43562 | 135.22021 | 15 ft | 33 kts | 234° |
| 2026-04-30 07:42 | 34.43425 | 135.21809 | 15 ft | 31 kts | 230° |
| 2026-04-30 07:42 | 34.43303 | 135.21628 | 15 ft | 23 kts | 231° |
| 2026-04-30 07:42 | 34.43191 | 135.21462 | 15 ft | 16 kts | 230° |
| 2026-04-30 07:42 | 34.43113 | 135.21346 | 15 ft | 18 kts | 231° |
| 2026-04-30 07:43 | 34.43046 | 135.21246 | 15 ft | 11 kts | 231° |
| 2026-04-30 07:43 | 34.42965 | 135.21126 | 15 ft | 24 kts | 231° |
| 2026-04-30 07:43 | 34.42840 | 135.20940 | 15 ft | 12 kts | 231° |
| 2026-04-30 07:43 | 34.42780 | 135.20850 | 15 ft | 13 kts | 231° |
| 2026-04-30 07:44 | 34.42749 | 135.20792 | 15 ft | 8 kts | 260° |
| 2026-04-30 07:44 | 34.42748 | 135.20766 | 15 ft | 1 kts | 278° |
| 2026-04-30 07:44 | 34.42769 | 135.20729 | 15 ft | 7 kts | 307° |
| 2026-04-30 07:44 | 34.42796 | 135.20697 | 15 ft | 10 kts | 317° |
| 2026-04-30 07:45 | 34.42852 | 135.20651 | 15 ft | 3 kts | 342° |
| 2026-04-30 07:45 | 34.42906 | 135.20685 | 15 ft | 15 kts | 49° |
| 2026-04-30 07:45 | 34.42921 | 135.20709 | 15 ft | 0 kts | 52° |
| 2026-04-30 07:46 | 34.42922 | 135.20709 | 15 ft | 0 kts | 52° |
| 2026-04-30 07:46 | 34.42922 | 135.20711 | 15 ft | 0 kts | 52° |
| 2026-04-30 07:46 | 34.42923 | 135.20711 | 15 ft | 0 kts | 52° |
| 2026-04-30 07:46 | 34.42923 | 135.20712 | 15 ft | 0 kts | 52° |
| 2026-04-30 07:47 | 34.42924 | 135.20712 | 15 ft | 0 kts | 52° |
| 2026-04-30 07:47 | 34.42929 | 135.20720 | 15 ft | 2 kts | 52° |
| 2026-04-30 07:47 | 34.43025 | 135.20868 | 15 ft | 47 kts | 51° |
| 2026-04-30 07:48 | 34.43357 | 135.21362 | 15 ft | 108 kts | 51° |
| 2026-04-30 07:48 | 34.43982 | 135.22292 | 71 ft | 172 kts | 51° |
| 2026-04-30 07:48 | 34.44764 | 135.23450 | 799 ft | 182 kts | 50° |
| 2026-04-30 07:48 | 34.45641 | 135.24617 | 1745 ft | 195 kts | 50° |
| 2026-04-30 07:49 | 34.46584 | 135.25685 | 2924 ft | 194 kts | 47° |
| 2026-04-30 07:49 | 34.47514 | 135.26894 | 3762 ft | 205 kts | 58° |
| 2026-04-30 07:49 | 34.48415 | 135.28250 | 4768 ft | 211 kts | 58° |
| 2026-04-30 07:49 | 34.49348 | 135.29662 | 5679 ft | 222 kts | 58° |
| 2026-04-30 07:50 | 34.50318 | 135.31128 | 6681 ft | 226 kts | 57° |
| 2026-04-30 07:50 | 34.51323 | 135.32651 | 7505 ft | 238 kts | 56° |
| 2026-04-30 07:50 | 34.52350 | 135.34207 | 8389 ft | 244 kts | 54° |
| 2026-04-30 07:50 | 34.53484 | 135.35774 | 9150 ft | 255 kts | 39° |
| 2026-04-30 07:51 | 34.55087 | 135.36688 | 9898 ft | 260 kts | 8° |
| 2026-04-30 07:51 | 34.56868 | 135.36697 | 10780 ft | 256 kts | 343° |
| 2026-04-30 07:51 | 34.58454 | 135.35867 | 11701 ft | 246 kts | 319° |
| 2026-04-30 07:51 | 34.59639 | 135.34471 | 12570 ft | 237 kts | 299° |
| 2026-04-30 07:52 | 34.60329 | 135.32750 | 13370 ft | 231 kts | 281° |
| 2026-04-30 07:52 | 34.60458 | 135.30809 | 14144 ft | 229 kts | 261° |
| 2026-04-30 07:52 | 34.59981 | 135.28990 | 14871 ft | 232 kts | 240° |
| 2026-04-30 07:52 | 34.58939 | 135.27475 | 15563 ft | 239 kts | 221° |
| 2026-04-30 07:53 | 34.57452 | 135.26483 | 16265 ft | 250 kts | 201° |
| 2026-04-30 07:53 | 34.55695 | 135.26270 | 16949 ft | 265 kts | 179° |
| 2026-04-30 07:53 | 34.53863 | 135.26848 | 17478 ft | 283 kts | 167° |
| 2026-04-30 07:53 | 34.51968 | 135.27840 | 17804 ft | 308 kts | 156° |
| 2026-04-30 07:54 | 34.50132 | 135.29388 | 18173 ft | 335 kts | 143° |
| 2026-04-30 07:54 | 34.48527 | 135.31538 | 18592 ft | 359 kts | 130° |
| 2026-04-30 07:54 | 34.47220 | 135.34212 | 19050 ft | 381 kts | 117° |
| 2026-04-30 07:54 | 34.46403 | 135.37396 | 19463 ft | 405 kts | 102° |
| 2026-04-30 07:55 | 34.46219 | 135.40871 | 19909 ft | 424 kts | 90° |
| 2026-04-30 07:55 | 34.46439 | 135.44463 | 20392 ft | 440 kts | 85° |
| 2026-04-30 07:55 | 34.46707 | 135.48242 | 20822 ft | 457 kts | 83° |
| 2026-04-30 07:55 | 34.47266 | 135.52133 | 21194 ft | 475 kts | 80° |
| 2026-04-30 07:56 | 34.47942 | 135.56258 | 21887 ft | 483 kts | 79° |
| 2026-04-30 07:56 | 34.48605 | 135.60294 | 22733 ft | 486 kts | 80° |
| 2026-04-30 07:56 | 34.49267 | 135.64325 | 23478 ft | 492 kts | 80° |
| 2026-04-30 07:56 | 34.49944 | 135.68462 | 24131 ft | 499 kts | 81° |
| 2026-04-30 07:57 | 34.50622 | 135.72618 | 24748 ft | 507 kts | 81° |
| 2026-04-30 07:57 | 34.51307 | 135.76822 | 25390 ft | 514 kts | 81° |
| 2026-04-30 07:57 | 34.51997 | 135.81062 | 26126 ft | 518 kts | 82° |
| 2026-04-30 07:57 | 34.52700 | 135.85399 | 26781 ft | 525 kts | 82° |
| 2026-04-30 07:58 | 34.53412 | 135.89798 | 27369 ft | 532 kts | 82° |
| 2026-04-30 07:58 | 34.54137 | 135.94241 | 27966 ft | 539 kts | 81° |
| 2026-04-30 07:58 | 34.55158 | 135.98592 | 28652 ft | 546 kts | 73° |
| 2026-04-30 07:58 | 34.56433 | 136.02991 | 29220 ft | 553 kts | 72° |
| 2026-04-30 07:59 | 34.57737 | 136.07402 | 29860 ft | 558 kts | 72° |
| 2026-04-30 07:59 | 34.59042 | 136.11821 | 30642 ft | 559 kts | 72° |
| 2026-04-30 07:59 | 34.60123 | 136.15492 | 31326 ft | 559 kts | 72° |
| 2026-04-30 08:00 | 34.62352 | 136.23076 | 32792 ft | 554 kts | 73° |
| 2026-04-30 08:00 | 34.63641 | 136.27483 | 33040 ft | 559 kts | 72° |
| 2026-04-30 08:00 | 34.66240 | 136.36383 | 33046 ft | 555 kts | 73° |
| 2026-04-30 08:01 | 34.68814 | 136.45233 | 33056 ft | 556 kts | 73° |
| 2026-04-30 08:01 | 34.71389 | 136.54117 | 33067 ft | 556 kts | 73° |
| 2026-04-30 08:02 | 34.72773 | 136.58905 | 33072 ft | 557 kts | 72° |
| 2026-04-30 08:03 | 34.77633 | 136.75783 | 33072 ft | 556 kts | 73° |
| 2026-04-30 08:04 | 34.79662 | 136.82858 | 33089 ft | 556 kts | 73° |
| 2026-04-30 08:04 | 34.81729 | 136.90958 | 33081 ft | 553 kts | 82° |
| 2026-04-30 08:05 | 34.82234 | 137.00179 | 33075 ft | 546 kts | 100° |
| 2026-04-30 08:05 | 34.81377 | 137.09294 | 33080 ft | 539 kts | 103° |
| 2026-04-30 08:06 | 34.80410 | 137.18362 | 33074 ft | 536 kts | 103° |
| 2026-04-30 08:06 | 34.79422 | 137.27354 | 33086 ft | 537 kts | 104° |
| 2026-04-30 08:07 | 34.78419 | 137.36336 | 33082 ft | 536 kts | 104° |
| 2026-04-30 08:07 | 34.77400 | 137.45337 | 33081 ft | 538 kts | 104° |
| 2026-04-30 08:08 | 34.76368 | 137.54359 | 33102 ft | 538 kts | 104° |
| 2026-04-30 08:08 | 34.75333 | 137.63380 | 33080 ft | 536 kts | 104° |
| 2026-04-30 08:09 | 34.74336 | 137.72397 | 33091 ft | 538 kts | 103° |
| 2026-04-30 08:09 | 34.73485 | 137.81500 | 33092 ft | 542 kts | 103° |
| 2026-04-30 08:10 | 34.72631 | 137.90559 | 33108 ft | 537 kts | 103° |
| 2026-04-30 08:10 | 34.71760 | 137.99649 | 33118 ft | 538 kts | 103° |
| 2026-04-30 08:11 | 34.71435 | 138.08760 | 33128 ft | 543 kts | 95° |
| 2026-04-30 08:11 | 34.71479 | 138.17929 | 33138 ft | 545 kts | 94° |
| 2026-04-30 08:12 | 34.71516 | 138.27125 | 33132 ft | 545 kts | 94° |
| 2026-04-30 08:12 | 34.71542 | 138.36359 | 33151 ft | 544 kts | 94° |
| 2026-04-30 08:13 | 34.71560 | 138.45557 | 33135 ft | 542 kts | 94° |
| 2026-04-30 08:13 | 34.71569 | 138.54744 | 33153 ft | 542 kts | 94° |
| 2026-04-30 08:14 | 34.71571 | 138.63884 | 33149 ft | 544 kts | 94° |
| 2026-04-30 08:14 | 34.71565 | 138.73080 | 33157 ft | 542 kts | 94° |
| 2026-04-30 08:15 | 34.71552 | 138.82224 | 33145 ft | 542 kts | 95° |
| 2026-04-30 08:15 | 34.71520 | 138.91422 | 33161 ft | 544 kts | 95° |
| 2026-04-30 08:16 | 34.71480 | 139.00763 | 32955 ft | 546 kts | 95° |
| 2026-04-30 08:16 | 34.71456 | 139.05341 | 32031 ft | 555 kts | 95° |
| 2026-04-30 08:16 | 34.71429 | 139.10053 | 30769 ft | 564 kts | 94° |
| 2026-04-30 08:16 | 34.71404 | 139.14816 | 30068 ft | 560 kts | 94° |
| 2026-04-30 08:17 | 34.71378 | 139.19519 | 29557 ft | 553 kts | 94° |
| 2026-04-30 08:17 | 34.71350 | 139.24107 | 28966 ft | 548 kts | 93° |
| 2026-04-30 08:17 | 34.71319 | 139.28740 | 28354 ft | 544 kts | 93° |
| 2026-04-30 08:17 | 34.71287 | 139.33263 | 27738 ft | 541 kts | 93° |
| 2026-04-30 08:18 | 34.71254 | 139.37826 | 27102 ft | 538 kts | 93° |
| 2026-04-30 08:18 | 34.71220 | 139.42319 | 26458 ft | 535 kts | 92° |
| 2026-04-30 08:18 | 34.71311 | 139.46854 | 25795 ft | 532 kts | 89° |
| 2026-04-30 08:18 | 34.71462 | 139.51332 | 25139 ft | 530 kts | 89° |
| 2026-04-30 08:19 | 34.71610 | 139.55757 | 24500 ft | 527 kts | 88° |
| 2026-04-30 08:19 | 34.71753 | 139.60188 | 23838 ft | 524 kts | 88° |
| 2026-04-30 08:19 | 34.71891 | 139.64577 | 23207 ft | 521 kts | 88° |
| 2026-04-30 08:19 | 34.72024 | 139.68957 | 22541 ft | 518 kts | 88° |
| 2026-04-30 08:20 | 34.72153 | 139.73299 | 21894 ft | 514 kts | 88° |
| 2026-04-30 08:20 | 34.72278 | 139.77618 | 21214 ft | 511 kts | 88° |
| 2026-04-30 08:20 | 34.72398 | 139.81860 | 20560 ft | 508 kts | 88° |
| 2026-04-30 08:20 | 34.72518 | 139.86125 | 19891 ft | 504 kts | 88° |
| 2026-04-30 08:21 | 34.72635 | 139.90404 | 19218 ft | 500 kts | 88° |
| 2026-04-30 08:21 | 34.72747 | 139.94545 | 18401 ft | 490 kts | 88° |
| 2026-04-30 08:21 | 34.72855 | 139.98627 | 17637 ft | 473 kts | 88° |
| 2026-04-30 08:21 | 34.72865 | 139.99013 | 17569 ft | 472 kts | 88° |
| 2026-04-30 08:22 | 34.73154 | 140.10172 | 16128 ft | 415 kts | 86° |
| 2026-04-30 08:23 | 34.73510 | 140.13609 | 15396 ft | 406 kts | 76° |
| 2026-04-30 08:23 | 34.74348 | 140.16817 | 14615 ft | 398 kts | 65° |
| 2026-04-30 08:23 | 34.75599 | 140.19827 | 13726 ft | 394 kts | 59° |
| 2026-04-30 08:23 | 34.76910 | 140.22717 | 12950 ft | 387 kts | 59° |
| 2026-04-30 08:24 | 34.78188 | 140.25519 | 12231 ft | 379 kts | 59° |
| 2026-04-30 08:24 | 34.79607 | 140.28235 | 11418 ft | 373 kts | 50° |
| 2026-04-30 08:24 | 34.81400 | 140.30447 | 10646 ft | 366 kts | 37° |
| 2026-04-30 08:24 | 34.83516 | 140.32063 | 9839 ft | 360 kts | 24° |
| 2026-04-30 08:25 | 34.85857 | 140.33035 | 9069 ft | 353 kts | 11° |
| 2026-04-30 08:25 | 34.88259 | 140.33310 | 8574 ft | 338 kts | 357° |
| 2026-04-30 08:25 | 34.90554 | 140.32944 | 8199 ft | 321 kts | 344° |
| 2026-04-30 08:25 | 34.92587 | 140.32060 | 7972 ft | 303 kts | 332° |
| 2026-04-30 08:26 | 34.94328 | 140.30791 | 7828 ft | 283 kts | 322° |
| 2026-04-30 08:26 | 34.95888 | 140.29361 | 7488 ft | 275 kts | 321° |
| 2026-04-30 08:26 | 34.97384 | 140.27959 | 6984 ft | 275 kts | 321° |
| 2026-04-30 08:26 | 34.98899 | 140.26535 | 6507 ft | 273 kts | 321° |
| 2026-04-30 08:27 | 35.00390 | 140.25133 | 6018 ft | 272 kts | 322° |
| 2026-04-30 08:27 | 35.01877 | 140.23735 | 5601 ft | 267 kts | 322° |
| 2026-04-30 08:27 | 35.03354 | 140.22345 | 5148 ft | 268 kts | 323° |
| 2026-04-30 08:27 | 35.04832 | 140.20953 | 4786 ft | 268 kts | 323° |
| 2026-04-30 08:28 | 35.06283 | 140.19588 | 4715 ft | 255 kts | 324° |
| 2026-04-30 08:28 | 35.07647 | 140.18301 | 4597 ft | 249 kts | 323° |
| 2026-04-30 08:28 | 35.09028 | 140.17000 | 4304 ft | 248 kts | 324° |
| 2026-04-30 08:28 | 35.10382 | 140.15723 | 4076 ft | 247 kts | 324° |
| 2026-04-30 08:29 | 35.11755 | 140.14427 | 3830 ft | 246 kts | 324° |
| 2026-04-30 08:29 | 35.13107 | 140.13152 | 3600 ft | 246 kts | 325° |
| 2026-04-30 08:29 | 35.14467 | 140.11867 | 3349 ft | 246 kts | 325° |
| 2026-04-30 08:29 | 35.15800 | 140.10564 | 3088 ft | 245 kts | 317° |
| 2026-04-30 08:30 | 35.16901 | 140.08960 | 2863 ft | 245 kts | 312° |
| 2026-04-30 08:30 | 35.18045 | 140.07448 | 2633 ft | 245 kts | 318° |
| 2026-04-30 08:30 | 35.19302 | 140.06021 | 2397 ft | 243 kts | 322° |
| 2026-04-30 08:30 | 35.20594 | 140.04710 | 2167 ft | 241 kts | 325° |
| 2026-04-30 08:31 | 35.21927 | 140.03476 | 1925 ft | 239 kts | 327° |
| 2026-04-30 08:31 | 35.23293 | 140.02313 | 1698 ft | 238 kts | 331° |
| 2026-04-30 08:31 | 35.24772 | 140.01219 | 1671 ft | 257 kts | 333° |
| 2026-04-30 08:31 | 35.26337 | 140.00085 | 2211 ft | 261 kts | 332° |
| 2026-04-30 08:32 | 35.27890 | 139.98959 | 2934 ft | 258 kts | 333° |
| 2026-04-30 08:32 | 35.29960 | 139.97469 | 3672 ft | 264 kts | 333° |
| 2026-04-30 08:32 | 35.31047 | 139.96707 | 3901 ft | 265 kts | 332° |
| 2026-04-30 08:32 | 35.32657 | 139.95579 | 3972 ft | 266 kts | 332° |
| 2026-04-30 08:33 | 35.34277 | 139.94440 | 3981 ft | 266 kts | 332° |
| 2026-04-30 08:33 | 35.35859 | 139.93278 | 3973 ft | 261 kts | 331° |
| 2026-04-30 08:33 | 35.37378 | 139.92156 | 3830 ft | 254 kts | 331° |
| 2026-04-30 08:33 | 35.38897 | 139.91060 | 3508 ft | 254 kts | 332° |
| 2026-04-30 08:34 | 35.40434 | 139.89973 | 3178 ft | 254 kts | 333° |
| 2026-04-30 08:34 | 35.41972 | 139.88902 | 2819 ft | 254 kts | 333° |
| 2026-04-30 08:34 | 35.43482 | 139.87860 | 2502 ft | 245 kts | 334° |
| 2026-04-30 08:34 | 35.44912 | 139.86864 | 2187 ft | 223 kts | 334° |
| 2026-04-30 08:35 | 35.46191 | 139.85986 | 1927 ft | 200 kts | 335° |
| 2026-04-30 08:35 | 35.47362 | 139.85167 | 1666 ft | 189 kts | 334° |
| 2026-04-30 08:35 | 35.48476 | 139.84380 | 1413 ft | 179 kts | 334° |
| 2026-04-30 08:35 | 35.49535 | 139.83653 | 1174 ft | 167 kts | 331° |
| 2026-04-30 08:36 | 35.50482 | 139.82959 | 947 ft | 155 kts | 335° |
| 2026-04-30 08:36 | 35.51409 | 139.82317 | 713 ft | 152 kts | 333° |
| 2026-04-30 08:36 | 35.52319 | 139.81663 | 488 ft | 147 kts | 332° |
| 2026-04-30 08:36 | 35.53195 | 139.81044 | 284 ft | 144 kts | 333° |
| 2026-04-30 08:37 | 35.54064 | 139.80440 | 109 ft | 144 kts | 332° |
| 2026-04-30 08:37 | 35.54915 | 139.79848 | 36 ft | 128 kts | 332° |
| 2026-04-30 08:37 | 35.55577 | 139.79378 | 35 ft | 92 kts | 330° |
| 2026-04-30 08:37 | 35.56051 | 139.79027 | 35 ft | 67 kts | 316° |
| 2026-04-30 08:38 | 35.56126 | 139.78575 | 35 ft | 50 kts | 234° |
| 2026-04-30 08:38 | 35.56039 | 139.78450 | 35 ft | 47 kts | 223° |
| 2026-04-30 08:39 | 35.56038 | 139.78448 | 35 ft | 0 kts | 217° |
| 2026-04-30 08:39 | 35.56035 | 139.78448 | 35 ft | 2 kts | 206° |
| 2026-04-30 08:39 | 35.55990 | 139.78459 | 35 ft | 7 kts | 150° |
| 2026-04-30 08:39 | 35.55942 | 139.78493 | 35 ft | 7 kts | 150° |
| 2026-04-30 08:40 | 35.55895 | 139.78529 | 35 ft | 8 kts | 149° |
| 2026-04-30 08:40 | 35.55856 | 139.78557 | 35 ft | 8 kts | 149° |
| 2026-04-30 08:40 | 35.55840 | 139.78569 | 35 ft | 8 kts | 149° |
| 2026-04-30 08:41 | 35.55813 | 139.78589 | 35 ft | 8 kts | 150° |
| 2026-04-30 08:41 | 35.55788 | 139.78606 | 35 ft | 8 kts | 152° |
| 2026-04-30 08:41 | 35.55742 | 139.78636 | 35 ft | 8 kts | 150° |
| 2026-04-30 08:42 | 35.55721 | 139.78651 | 35 ft | 8 kts | 150° |
| 2026-04-30 08:42 | 35.55671 | 139.78691 | 35 ft | 8 kts | 137° |
| 2026-04-30 08:42 | 35.55662 | 139.78713 | 35 ft | 5 kts | 99° |
| 2026-04-30 08:42 | 35.55660 | 139.78729 | 35 ft | 5 kts | 92° |
| 2026-04-30 08:43 | 35.55667 | 139.78777 | 35 ft | 5 kts | 73° |
| 2026-04-30 08:43 | 35.55683 | 139.78821 | 35 ft | 5 kts | 64° |
| 2026-04-30 08:43 | 35.55694 | 139.78867 | 35 ft | 5 kts | 89° |
| 2026-04-30 08:43 | 35.55683 | 139.78902 | 35 ft | 3 kts | 130° |
| 2026-04-30 08:44 | 35.55662 | 139.78926 | 35 ft | 4 kts | 142° |
| 2026-04-30 08:44 | 35.55636 | 139.78950 | 35 ft | 5 kts | 145° |
| 2026-04-30 08:44 | 35.55604 | 139.78973 | 35 ft | 5 kts | 149° |
| 2026-04-30 08:44 | 35.55570 | 139.78999 | 35 ft | 6 kts | 149° |
| 2026-04-30 08:45 | 35.55529 | 139.79028 | 35 ft | 7 kts | 149° |
| 2026-04-30 08:45 | 35.55474 | 139.79054 | 35 ft | 9 kts | 183° |
| 2026-04-30 08:45 | 35.55421 | 139.78993 | 35 ft | 12 kts | 242° |
| 2026-04-30 08:45 | 35.55382 | 139.78922 | 35 ft | 5 kts | 200° |
| 2026-04-30 08:46 | 35.55339 | 139.78935 | 35 ft | 7 kts | 150° |
| 2026-04-30 08:46 | 35.55295 | 139.78967 | 35 ft | 7 kts | 149° |
| 2026-04-30 08:46 | 35.55254 | 139.78986 | 35 ft | 5 kts | 204° |
| 2026-04-30 08:46 | 35.55231 | 139.78950 | 35 ft | 3 kts | 238° |
| 2026-04-30 08:47 | 35.55220 | 139.78929 | 35 ft | 3 kts | 239° |
| 2026-04-30 08:47 | 35.55213 | 139.78915 | 35 ft | 0 kts | 239° |
| 2026-04-30 08:48 | 35.55215 | 139.78919 | 35 ft | 0 kts | 239° |
| 2026-04-30 08:48 | 35.55217 | 139.78922 | 34 ft | 0 kts | 239° |